createdAt,value
2022-10-17T00:02:01.611Z,69.45
2022-10-17T00:04:30.346Z,69.46
2022-10-17T00:06:57.791Z,69.32
2022-10-17T00:09:25.189Z,69.62
2022-10-17T00:11:52.589Z,69.55
2022-10-17T00:14:19.996Z,69.46
2022-10-17T00:16:47.395Z,69.47
2022-10-17T00:19:14.780Z,69.49
2022-10-17T00:21:43.436Z,69.51
2022-10-17T00:24:10.830Z,69.62
2022-10-17T00:26:38.228Z,69.54
2022-10-17T00:29:05.707Z,69.29
2022-10-17T00:31:33.152Z,69.55
2022-10-17T00:34:00.571Z,69.63
2022-10-17T00:36:29.460Z,69.48
2022-10-17T00:38:59.112Z,69.51
2022-10-17T00:41:28.470Z,69.27
2022-10-17T00:43:57.909Z,69.55
2022-10-17T00:46:26.600Z,69.34
2022-10-17T00:48:55.349Z,69.45
2022-10-17T00:51:26.417Z,69.53
2022-10-17T00:53:53.848Z,69.67
2022-10-17T00:56:22.580Z,69.68
2022-10-17T00:58:50.240Z,69.61
2022-10-17T01:01:17.642Z,69.75
2022-10-17T01:03:45.089Z,69.78
2022-10-17T01:06:12.641Z,69.79
2022-10-17T01:08:40.025Z,69.52
2022-10-17T01:11:14.111Z,69.62
2022-10-17T01:13:46.539Z,69.49
2022-10-17T01:16:15.095Z,69.74
2022-10-17T01:18:52.555Z,69.94
2022-10-17T01:21:30.897Z,69.66
2022-10-17T01:24:10.187Z,69.87
2022-10-17T01:26:51.224Z,69.86
2022-10-17T01:29:32.541Z,69.93
2022-10-17T01:32:02.588Z,69.69
2022-10-17T01:34:33.322Z,69.96
2022-10-17T01:37:02.960Z,69.73
2022-10-17T01:39:34.443Z,69.88
2022-10-17T01:42:11.251Z,69.68
2022-10-17T01:44:41.444Z,69.56
2022-10-17T01:47:11.093Z,69.84
2022-10-17T01:49:38.704Z,69.57
2022-10-17T01:52:08.843Z,69.85
2022-10-17T01:54:39.380Z,69.83
2022-10-17T01:57:07.313Z,69.83
2022-10-17T01:59:37.600Z,69.77
2022-10-17T02:02:06.135Z,69.61
2022-10-17T02:04:36.813Z,69.78
2022-10-17T02:07:08.569Z,69.59
2022-10-17T02:09:36.293Z,69.61
2022-10-17T02:12:12.670Z,69.69
2022-10-17T02:14:45.392Z,69.75
2022-10-17T02:17:15.654Z,69.87
2022-10-17T02:19:52.230Z,69.45
2022-10-17T02:22:26.225Z,69.60
2022-10-17T02:24:55.787Z,69.73
2022-10-17T02:27:27.214Z,69.79
2022-10-17T02:29:57.132Z,69.88
2022-10-17T02:32:26.015Z,69.86
2022-10-17T02:34:56.283Z,69.55
2022-10-17T02:37:25.754Z,69.60
2022-10-17T02:39:53.763Z,69.46
2022-10-17T02:42:21.158Z,69.81
2022-10-17T02:44:48.542Z,69.96
2022-10-17T02:47:19.125Z,69.77
2022-10-17T02:49:48.246Z,69.67
2022-10-17T02:52:18.328Z,69.65
2022-10-17T02:54:48.660Z,69.75
2022-10-17T02:57:18.485Z,69.73
2022-10-17T02:59:46.091Z,69.84
2022-10-17T03:02:13.701Z,69.62
2022-10-17T03:04:43.923Z,69.67
2022-10-17T03:07:11.504Z,69.76
2022-10-17T03:09:40.262Z,69.62
2022-10-17T03:12:07.728Z,69.78
2022-10-17T03:14:35.892Z,69.82
2022-10-17T03:17:04.231Z,69.91
2022-10-17T03:19:31.933Z,69.80
2022-10-17T03:21:59.348Z,70.04
2022-10-17T03:24:26.743Z,69.90
2022-10-17T03:26:55.491Z,69.86
2022-10-17T03:29:23.052Z,69.76
2022-10-17T03:31:50.663Z,69.87
2022-10-17T03:34:18.812Z,69.72
2022-10-17T03:36:46.452Z,69.81
2022-10-17T03:39:13.990Z,69.86
2022-10-17T03:41:41.430Z,69.74
2022-10-17T03:44:11.137Z,69.67
2022-10-17T03:46:38.876Z,69.70
2022-10-17T03:49:06.996Z,69.93
2022-10-17T03:51:34.891Z,69.73
2022-10-17T03:54:06.684Z,70.03
2022-10-17T03:56:34.166Z,69.72
2022-10-17T03:59:08.037Z,69.82
2022-10-17T04:01:39.093Z,69.89
2022-10-17T04:04:07.688Z,69.78
2022-10-17T04:06:36.812Z,69.73
2022-10-17T04:09:05.055Z,69.71
2022-10-17T04:11:39.288Z,69.68
2022-10-17T04:14:06.806Z,69.71
2022-10-17T04:16:34.239Z,69.79
2022-10-17T04:19:13.213Z,69.59
2022-10-17T04:21:44.729Z,69.87
2022-10-17T04:24:12.277Z,70.07
2022-10-17T04:26:58.366Z,69.73
2022-10-17T04:29:29.403Z,70.23
2022-10-17T04:32:06.880Z,69.96
2022-10-17T04:34:45.254Z,69.65
2022-10-17T04:37:15.343Z,69.58
2022-10-17T04:39:44.193Z,69.70
2022-10-17T04:42:11.809Z,69.63
2022-10-17T04:44:39.486Z,69.35
2022-10-17T04:47:06.923Z,69.50
2022-10-17T04:49:34.387Z,69.66
2022-10-17T04:52:10.365Z,69.47
2022-10-17T04:54:40.640Z,69.63
2022-10-17T04:57:10.434Z,69.42
2022-10-17T04:59:39.742Z,69.65
2022-10-17T05:02:22.513Z,69.56
2022-10-17T05:04:50.787Z,69.40
2022-10-17T05:07:19.597Z,69.66
2022-10-17T05:10:01.359Z,69.53
2022-10-17T05:12:30.060Z,69.41
2022-10-17T05:14:57.755Z,69.34
2022-10-17T05:17:26.805Z,69.42
2022-10-17T05:19:54.192Z,69.70
2022-10-17T05:22:22.913Z,69.55
2022-10-17T05:24:50.315Z,69.43
2022-10-17T05:27:17.782Z,69.20
2022-10-17T05:29:45.634Z,69.42
2022-10-17T05:32:21.596Z,69.74
2022-10-17T05:34:48.999Z,70.47
2022-10-17T05:37:16.520Z,70.05
2022-10-17T05:39:51.564Z,69.45
2022-10-17T05:42:19.642Z,69.51
2022-10-17T05:44:47.860Z,69.91
2022-10-17T05:47:17.786Z,70.39
2022-10-17T05:49:51.247Z,70.51
2022-10-17T05:52:22.787Z,71.08
2022-10-17T05:55:13.701Z,70.91
2022-10-17T05:57:41.314Z,70.41
2022-10-17T06:00:14.780Z,70.27
2022-10-17T06:02:42.199Z,71.02
2022-10-17T06:05:11.189Z,71.14
2022-10-17T06:07:38.631Z,71.29
2022-10-17T06:10:07.085Z,70.70
2022-10-17T06:12:36.241Z,71.08
2022-10-17T06:15:03.736Z,71.09
2022-10-17T06:17:31.407Z,70.65
2022-10-17T06:19:58.945Z,70.42
2022-10-17T06:22:26.617Z,70.43
2022-10-17T06:24:54.345Z,70.65
2022-10-17T06:27:21.949Z,70.40
2022-10-17T06:29:51.764Z,70.48
2022-10-17T06:32:19.276Z,70.43
2022-10-17T06:34:47.739Z,70.26
2022-10-17T06:37:15.970Z,70.11
2022-10-17T06:39:44.301Z,70.65
2022-10-17T06:42:14.005Z,70.72
2022-10-17T06:44:55.444Z,70.66
2022-10-17T06:47:41.251Z,70.35
2022-10-17T06:50:25.921Z,70.24
2022-10-17T06:53:08.709Z,70.27
2022-10-17T06:55:53.894Z,70.33
2022-10-17T06:58:28.382Z,70.09
2022-10-17T07:01:06.675Z,69.94
2022-10-17T07:03:35.499Z,70.14
2022-10-17T07:06:03.270Z,70.08
2022-10-17T07:08:30.712Z,69.84
2022-10-17T07:11:00.771Z,70.00
2022-10-17T07:13:28.221Z,69.72
2022-10-17T07:16:00.172Z,69.62
2022-10-17T07:18:29.041Z,69.42
2022-10-17T07:20:56.536Z,69.75
2022-10-17T07:23:24.131Z,69.53
2022-10-17T07:25:51.649Z,69.79
2022-10-17T07:28:19.293Z,69.84
2022-10-17T07:30:50.702Z,69.89
2022-10-17T07:33:21.099Z,70.16
2022-10-17T07:35:49.826Z,70.26
2022-10-17T07:38:17.257Z,70.30
2022-10-17T07:40:44.809Z,70.32
2022-10-17T07:43:12.440Z,70.80
2022-10-17T07:45:39.894Z,70.20
2022-10-17T07:48:07.434Z,70.32
2022-10-17T07:50:34.883Z,70.51
2022-10-17T07:53:03.608Z,70.29
2022-10-17T07:55:30.993Z,70.47
2022-10-17T07:58:00.337Z,70.23
2022-10-17T08:00:27.787Z,70.26
2022-10-17T08:02:55.207Z,70.39
2022-10-17T08:05:22.601Z,70.20
2022-10-17T08:07:49.976Z,70.27
2022-10-17T08:10:18.850Z,70.48
2022-10-17T08:12:46.228Z,69.96
2022-10-17T08:15:13.638Z,69.87
2022-10-17T08:17:41.023Z,69.72
2022-10-17T08:20:09.139Z,70.05
2022-10-17T08:22:36.577Z,69.93
2022-10-17T08:25:04.028Z,69.59
2022-10-17T08:27:33.556Z,69.68
2022-10-17T08:30:00.966Z,69.54
2022-10-17T08:32:29.752Z,69.58
2022-10-17T08:37:24.683Z,70.24
2022-10-17T08:39:52.063Z,69.84
2022-10-17T08:42:31.844Z,69.85
2022-10-17T08:45:19.525Z,69.88
2022-10-17T08:47:48.116Z,69.81
2022-10-17T08:50:18.889Z,69.78
2022-10-17T08:52:48.870Z,69.59
2022-10-17T08:55:17.357Z,69.50
2022-10-17T08:57:44.765Z,69.89
2022-10-17T09:00:16.377Z,69.81
2022-10-17T09:02:50.001Z,69.98
2022-10-17T09:05:35.771Z,69.87
2022-10-17T09:08:14.594Z,70.36
2022-10-17T09:10:48.709Z,69.85
2022-10-17T09:13:23.102Z,70.05
2022-10-17T09:16:07.452Z,70.08
2022-10-17T09:18:36.345Z,69.62
2022-10-17T09:21:10.422Z,69.24
2022-10-17T09:23:42.609Z,69.88
2022-10-17T09:26:10.100Z,69.27
2022-10-17T09:28:38.788Z,69.84
2022-10-17T09:31:10.375Z,69.75
2022-10-17T09:33:55.256Z,68.88
2022-10-17T09:36:24.410Z,69.16
2022-10-17T09:38:53.617Z,69.29
2022-10-17T09:44:17.111Z,68.86
2022-10-17T09:46:52.107Z,68.89
2022-10-17T09:49:20.541Z,68.78
2022-10-17T09:51:47.956Z,69.87
2022-10-17T09:54:19.031Z,69.33
2022-10-17T09:56:59.423Z,69.33
2022-10-17T09:59:35.466Z,69.18
2022-10-17T10:02:15.852Z,68.63
2022-10-17T10:05:06.641Z,69.00
2022-10-17T10:07:35.842Z,69.05
2022-10-17T10:10:03.715Z,69.80
2022-10-17T10:12:32.549Z,69.37
2022-10-17T10:15:00.241Z,69.57
2022-10-17T10:17:37.519Z,68.42
2022-10-17T10:20:21.216Z,68.73
2022-10-17T10:23:12.135Z,68.50
2022-10-17T10:25:39.535Z,68.23
2022-10-17T10:28:11.189Z,68.08
2022-10-17T10:30:40.018Z,68.44
2022-10-17T10:33:11.434Z,68.21
2022-10-17T10:35:38.916Z,68.47
2022-10-17T10:38:10.703Z,68.21
2022-10-17T10:40:39.455Z,68.19
2022-10-17T10:43:08.819Z,68.24
2022-10-17T10:45:49.140Z,68.09
2022-10-17T10:48:22.355Z,67.79
2022-10-17T10:50:51.164Z,67.43
2022-10-17T10:53:34.220Z,67.43
2022-10-17T10:56:05.171Z,67.19
2022-10-17T10:58:41.846Z,66.48
2022-10-17T11:01:16.844Z,66.94
2022-10-17T11:03:53.700Z,67.87
2022-10-17T11:06:23.780Z,68.17
2022-10-17T11:08:53.553Z,68.45
2022-10-17T11:11:24.903Z,69.23
2022-10-17T11:13:54.217Z,69.18
2022-10-17T11:16:28.099Z,69.35
2022-10-17T11:18:59.742Z,69.26
2022-10-17T11:21:29.780Z,69.34
2022-10-17T11:23:59.716Z,69.29
2022-10-17T11:26:28.119Z,69.43
2022-10-17T11:28:55.709Z,70.26
2022-10-17T11:31:23.713Z,70.52
2022-10-17T11:33:52.606Z,70.62
2022-10-17T11:36:23.119Z,70.58
2022-10-17T11:38:51.990Z,70.94
2022-10-17T11:41:20.723Z,70.02
2022-10-17T11:43:51.222Z,69.68
2022-10-17T11:46:20.336Z,70.24
2022-10-17T11:48:56.783Z,69.88
2022-10-17T11:54:15.080Z,70.61
2022-10-17T11:56:45.549Z,70.41
2022-10-17T11:59:28.760Z,70.86
2022-10-17T12:01:58.440Z,70.99
2022-10-17T12:04:37.610Z,70.97
2022-10-17T12:07:11.866Z,70.82
2022-10-17T12:09:42.360Z,70.90
2022-10-17T12:12:09.924Z,70.80
2022-10-17T12:14:42.171Z,70.88
2022-10-17T12:17:24.489Z,71.08
2022-10-17T12:19:51.890Z,71.49
2022-10-17T12:22:22.467Z,71.18
2022-10-17T12:24:57.460Z,71.20
2022-10-17T12:27:42.381Z,71.54
2022-10-17T12:30:23.735Z,71.40
2022-10-17T12:33:05.656Z,71.12
2022-10-17T12:35:34.972Z,70.95
2022-10-17T12:38:30.393Z,70.80
2022-10-17T12:41:02.233Z,71.03
2022-10-17T12:43:48.361Z,71.28
2022-10-17T12:46:42.157Z,71.55
2022-10-17T12:49:21.824Z,71.13
2022-10-17T12:52:20.049Z,71.49
2022-10-17T12:55:00.335Z,71.23
2022-10-17T12:57:43.894Z,71.35
2022-10-17T13:00:17.673Z,71.28
2022-10-17T13:02:45.069Z,71.09
2022-10-17T13:05:15.368Z,71.30
2022-10-17T13:07:43.557Z,71.26
2022-10-17T13:10:19.989Z,70.96
2022-10-17T13:12:47.469Z,71.13
2022-10-17T13:15:17.362Z,71.25
2022-10-17T13:17:44.750Z,70.84
2022-10-17T13:20:23.569Z,71.20
2022-10-17T13:22:53.016Z,71.29
2022-10-17T13:25:21.946Z,71.31
2022-10-17T13:27:49.478Z,71.33
2022-10-17T13:30:30.908Z,71.45
2022-10-17T13:32:59.878Z,71.29
2022-10-17T13:35:48.567Z,71.19
2022-10-17T13:38:16.148Z,71.45
2022-10-17T13:40:50.086Z,71.38
2022-10-17T13:43:18.425Z,71.10
2022-10-17T13:45:47.814Z,71.15
2022-10-17T13:48:19.677Z,71.23
2022-10-17T13:50:48.497Z,71.40
2022-10-17T13:53:18.876Z,71.49
2022-10-17T13:56:15.706Z,71.33
2022-10-17T13:58:44.122Z,71.02
2022-10-17T14:01:11.817Z,71.18
2022-10-17T14:03:48.215Z,71.11
2022-10-17T14:06:18.565Z,71.36
2022-10-17T14:09:04.429Z,71.24
2022-10-17T14:11:35.004Z,71.18
2022-10-17T14:14:03.183Z,71.32
2022-10-17T14:16:35.585Z,70.98
2022-10-17T14:19:03.089Z,71.03
2022-10-17T14:21:44.161Z,71.09
2022-10-17T14:24:25.561Z,71.13
2022-10-17T14:26:55.170Z,71.15
2022-10-17T14:29:24.985Z,70.94
2022-10-17T14:31:58.357Z,71.22
2022-10-17T14:34:29.013Z,71.05
2022-10-17T14:36:56.420Z,70.31
2022-10-17T14:39:24.965Z,70.21
2022-10-17T14:41:53.657Z,70.30
2022-10-17T14:44:22.841Z,70.35
2022-10-17T14:46:53.094Z,70.84
2022-10-17T14:49:24.980Z,70.66
2022-10-17T14:52:25.164Z,71.06
2022-10-17T14:54:52.596Z,70.84
2022-10-17T14:57:24.674Z,70.95
2022-10-17T14:59:54.316Z,71.20
2022-10-17T15:02:22.406Z,69.87
2022-10-17T15:04:49.790Z,70.78
2022-10-17T15:07:17.588Z,70.21
2022-10-17T15:09:45.405Z,70.32
2022-10-17T15:12:14.917Z,70.78
2022-10-17T15:14:43.841Z,70.82
2022-10-17T15:17:13.613Z,70.98
2022-10-17T15:19:41.052Z,71.05
2022-10-17T15:22:08.552Z,71.02
2022-10-17T15:24:35.987Z,71.15
2022-10-17T15:27:03.377Z,71.21
2022-10-17T15:29:30.775Z,71.44
2022-10-17T15:31:59.455Z,71.20
2022-10-17T15:34:26.837Z,71.37
2022-10-17T15:36:54.794Z,71.66
2022-10-17T15:39:22.262Z,71.37
2022-10-17T15:41:49.684Z,71.50
2022-10-17T15:44:17.440Z,71.67
2022-10-17T15:46:44.834Z,71.82
2022-10-17T15:49:15.111Z,72.25
2022-10-17T15:51:43.585Z,72.23
2022-10-17T15:56:43.381Z,72.55
2022-10-17T15:59:13.228Z,72.54
2022-10-17T16:01:40.656Z,72.73
2022-10-17T16:04:12.524Z,72.64
2022-10-17T16:06:41.297Z,72.40
2022-10-17T16:09:08.691Z,72.31
2022-10-17T16:11:36.776Z,72.79
2022-10-17T16:14:04.996Z,72.55
2022-10-17T16:16:32.830Z,72.57
2022-10-17T16:19:01.320Z,72.73
2022-10-17T16:24:03.539Z,72.58
2022-10-17T16:26:30.969Z,72.57
2022-10-17T16:29:02.535Z,72.66
2022-10-17T16:31:31.805Z,72.80
2022-10-17T16:33:59.849Z,72.64
2022-10-17T16:36:27.243Z,72.92
2022-10-17T16:38:54.797Z,72.74
2022-10-17T16:41:24.702Z,73.12
2022-10-17T16:43:53.033Z,72.64
2022-10-17T16:46:20.570Z,72.73
2022-10-17T16:48:47.978Z,72.56
2022-10-17T16:51:15.887Z,72.58
2022-10-17T16:53:44.365Z,72.62
2022-10-17T16:56:12.473Z,72.70
2022-10-17T16:58:41.323Z,72.75
2022-10-17T17:01:10.449Z,72.52
2022-10-17T17:03:38.112Z,72.73
2022-10-17T17:06:06.548Z,72.63
2022-10-17T17:08:34.138Z,72.43
2022-10-17T17:11:01.519Z,72.70
2022-10-17T17:13:28.974Z,72.59
2022-10-17T17:16:04.791Z,72.52
2022-10-17T17:18:32.272Z,72.46
2022-10-17T17:21:00.531Z,72.91
2022-10-17T17:23:27.935Z,72.35
2022-10-17T17:25:59.323Z,72.48
2022-10-17T17:28:27.082Z,72.49
2022-10-17T17:30:54.530Z,72.32
2022-10-17T17:33:23.266Z,72.46
2022-10-17T17:35:55.265Z,72.65
2022-10-17T17:38:22.659Z,72.42
2022-10-17T17:40:50.881Z,72.54
2022-10-17T17:43:18.745Z,72.34
2022-10-17T17:45:46.340Z,72.71
2022-10-17T17:48:13.838Z,72.61
2022-10-17T17:50:42.860Z,72.67
2022-10-17T17:53:10.515Z,72.83
2022-10-17T17:55:38.046Z,72.79
2022-10-17T17:58:05.994Z,72.87
2022-10-17T18:00:34.816Z,72.95
2022-10-17T18:03:02.356Z,72.92
2022-10-17T18:05:29.837Z,73.08
2022-10-17T18:07:58.539Z,73.06
2022-10-17T18:10:25.949Z,73.14
2022-10-17T18:12:53.357Z,73.15
2022-10-17T18:15:20.790Z,73.23
2022-10-17T18:17:49.075Z,73.13
2022-10-17T18:20:16.612Z,73.09
2022-10-17T18:22:43.999Z,73.17
2022-10-17T18:25:12.693Z,73.18
2022-10-17T18:27:40.062Z,73.27
2022-10-17T18:30:08.691Z,73.25
2022-10-17T18:32:36.084Z,73.43
2022-10-17T18:35:03.491Z,73.35
2022-10-17T18:37:30.920Z,73.54
2022-10-17T18:39:58.371Z,73.41
2022-10-17T18:42:27.236Z,73.26
2022-10-17T18:44:54.792Z,73.07
2022-10-17T18:47:22.166Z,73.21
2022-10-17T18:49:49.557Z,73.01
2022-10-17T18:52:17.026Z,73.05
2022-10-17T18:54:44.425Z,72.78
2022-10-17T18:57:11.910Z,72.89
2022-10-17T18:59:40.602Z,72.89
2022-10-17T19:02:09.831Z,72.83
2022-10-17T19:04:37.265Z,72.79
2022-10-17T19:07:04.990Z,72.90
2022-10-17T19:09:32.894Z,72.88
2022-10-17T19:12:00.316Z,72.86
2022-10-17T19:14:28.605Z,73.03
2022-10-17T19:16:59.535Z,73.10
2022-10-17T19:19:27.003Z,72.94
2022-10-17T19:21:54.433Z,73.04
2022-10-17T19:24:23.407Z,73.32
2022-10-17T19:26:53.278Z,73.06
2022-10-17T19:29:21.267Z,72.93
2022-10-17T19:31:49.059Z,73.03
2022-10-17T19:34:17.869Z,73.18
2022-10-17T19:36:45.343Z,73.09
2022-10-17T19:39:13.902Z,72.98
2022-10-17T19:41:41.295Z,73.32
2022-10-17T19:44:08.806Z,73.25
2022-10-17T19:46:36.236Z,73.13
2022-10-17T19:49:03.956Z,73.14
2022-10-17T19:51:32.633Z,73.16
2022-10-17T19:54:00.994Z,72.93
2022-10-17T19:56:30.392Z,73.15
2022-10-17T19:58:58.077Z,73.17
2022-10-17T20:01:26.652Z,73.22
2022-10-17T20:03:54.224Z,73.16
2022-10-17T20:06:21.773Z,73.07
2022-10-17T20:08:50.523Z,73.12
2022-10-17T20:11:18.872Z,73.20
2022-10-17T20:13:46.395Z,73.04
2022-10-17T20:16:21.556Z,73.18
2022-10-17T20:18:48.968Z,73.23
2022-10-17T20:21:21.946Z,73.19
2022-10-17T20:23:50.865Z,73.18
2022-10-17T20:26:26.297Z,73.23
2022-10-17T20:29:05.559Z,73.21
2022-10-17T20:31:33.014Z,72.92
2022-10-17T20:34:00.599Z,73.03
2022-10-17T20:36:28.150Z,73.42
2022-10-17T20:38:57.402Z,73.22
2022-10-17T20:41:24.845Z,72.97
2022-10-17T20:43:52.696Z,73.06
2022-10-17T20:46:35.011Z,73.08
2022-10-17T20:49:03.558Z,73.62
2022-10-17T20:51:30.954Z,73.47
2022-10-17T20:53:59.651Z,73.30
2022-10-17T20:56:28.358Z,73.40
2022-10-17T20:58:57.034Z,73.26
2022-10-17T21:01:24.520Z,73.47
2022-10-17T21:03:52.001Z,73.43
2022-10-17T21:06:21.323Z,73.37
2022-10-17T21:08:48.862Z,73.37
2022-10-17T21:11:18.360Z,73.22
2022-10-17T21:13:46.776Z,73.26
2022-10-17T21:16:15.481Z,72.77
2022-10-17T21:18:43.126Z,73.02
2022-10-17T21:21:11.802Z,73.15
2022-10-17T21:23:39.528Z,73.14
2022-10-17T21:26:09.236Z,72.84
2022-10-17T21:28:38.219Z,72.95
2022-10-17T21:31:13.080Z,72.63
2022-10-17T21:33:40.824Z,72.92
2022-10-17T21:36:09.193Z,72.70
2022-10-17T21:38:37.303Z,72.86
2022-10-17T21:41:05.016Z,73.34
2022-10-17T21:43:32.492Z,72.94
2022-10-17T21:46:03.950Z,72.76
2022-10-17T21:48:31.643Z,72.88
2022-10-17T21:50:59.949Z,72.90
2022-10-17T21:53:27.370Z,72.81
2022-10-17T21:55:54.814Z,72.91
2022-10-17T21:58:22.517Z,72.83
2022-10-17T22:00:49.978Z,73.34
2022-10-17T22:03:18.671Z,72.83
2022-10-17T22:05:46.275Z,73.37
2022-10-17T22:08:13.868Z,73.73
2022-10-17T22:10:41.543Z,73.75
2022-10-17T22:13:08.980Z,74.06
2022-10-17T22:15:36.365Z,74.00
2022-10-17T22:18:03.758Z,73.97
2022-10-17T22:20:34.375Z,74.03
2022-10-17T22:23:01.754Z,74.02
2022-10-17T22:25:29.235Z,74.20
2022-10-17T22:27:56.625Z,74.18
2022-10-17T22:30:24.026Z,74.35
2022-10-17T22:32:51.408Z,74.03
2022-10-17T22:35:18.865Z,74.12
2022-10-17T22:37:47.552Z,74.11
2022-10-17T22:40:15.055Z,74.24
2022-10-17T22:42:42.467Z,73.95
2022-10-17T22:45:10.727Z,73.87
2022-10-17T22:47:38.151Z,73.81
2022-10-17T22:50:08.013Z,73.83
2022-10-17T22:52:35.409Z,73.83
2022-10-17T22:55:04.966Z,73.91
2022-10-17T22:57:32.361Z,73.95
2022-10-17T22:59:59.749Z,73.78
2022-10-17T23:02:27.151Z,73.60
2022-10-17T23:04:54.622Z,73.76
2022-10-17T23:07:22.036Z,73.63
2022-10-17T23:09:49.434Z,73.70
2022-10-17T23:12:18.107Z,73.96
2022-10-17T23:14:45.524Z,73.87
2022-10-17T23:17:13.036Z,73.84
2022-10-17T23:19:40.608Z,73.88
2022-10-17T23:22:08.180Z,73.90
2022-10-17T23:24:35.597Z,74.01
2022-10-17T23:27:03.086Z,73.71
2022-10-17T23:29:33.667Z,73.91
2022-10-17T23:32:01.152Z,73.95
2022-10-17T23:34:29.299Z,73.87
2022-10-17T23:36:57.326Z,74.18
2022-10-17T23:39:24.732Z,74.30
2022-10-17T23:41:52.118Z,74.00
2022-10-17T23:44:20.111Z,73.71
2022-10-17T23:46:48.799Z,73.90
2022-10-17T23:49:16.344Z,73.88
2022-10-17T23:51:43.715Z,73.76
2022-10-17T23:54:11.152Z,74.13
2022-10-17T23:56:38.573Z,73.78
2022-10-17T23:59:05.980Z,73.98
